sensor_id;sensor_type;location;lat;lon;timestamp;P1;durP1;ratioP1;P2;durP2;ratioP2
39188;SDS011;24915;50.858;4.376;2022-12-18T00:01:17;93.97;;;43.28;;
39188;SDS011;24915;50.858;4.376;2022-12-18T00:03:43;98.07;;;44.97;;
39188;SDS011;24915;50.858;4.376;2022-12-18T00:06:09;91.00;;;44.17;;
39188;SDS011;24915;50.858;4.376;2022-12-18T00:08:35;85.15;;;42.45;;
39188;SDS011;24915;50.858;4.376;2022-12-18T00:11:04;88.63;;;41.63;;
39188;SDS011;24915;50.858;4.376;2022-12-18T00:13:35;83.88;;;41.58;;
39188;SDS011;24915;50.858;4.376;2022-12-18T00:16:02;88.03;;;41.33;;
39188;SDS011;24915;50.858;4.376;2022-12-18T00:18:39;94.28;;;42.00;;
39188;SDS011;24915;50.858;4.376;2022-12-18T00:21:06;89.68;;;41.83;;
39188;SDS011;24915;50.858;4.376;2022-12-18T00:23:34;84.82;;;39.72;;
39188;SDS011;24915;50.858;4.376;2022-12-18T00:26:03;81.70;;;38.78;;
39188;SDS011;24915;50.858;4.376;2022-12-18T00:28:35;80.72;;;38.30;;
39188;SDS011;24915;50.858;4.376;2022-12-18T00:31:02;83.07;;;37.50;;
39188;SDS011;24915;50.858;4.376;2022-12-18T00:33:32;78.63;;;36.47;;
39188;SDS011;24915;50.858;4.376;2022-12-18T00:36:06;84.97;;;37.75;;
39188;SDS011;24915;50.858;4.376;2022-12-18T00:38:34;58.22;;;28.77;;
39188;SDS011;24915;50.858;4.376;2022-12-18T00:41:00;60.25;;;29.50;;
39188;SDS011;24915;50.858;4.376;2022-12-18T00:43:26;61.53;;;30.23;;
39188;SDS011;24915;50.858;4.376;2022-12-18T00:45:52;57.25;;;26.10;;
39188;SDS011;24915;50.858;4.376;2022-12-18T00:48:17;54.92;;;27.98;;
39188;SDS011;24915;50.858;4.376;2022-12-18T00:50:43;50.08;;;26.10;;
39188;SDS011;24915;50.858;4.376;2022-12-18T00:53:09;53.78;;;26.83;;
39188;SDS011;24915;50.858;4.376;2022-12-18T00:55:35;46.55;;;24.10;;
39188;SDS011;24915;50.858;4.376;2022-12-18T00:58:02;55.92;;;27.05;;
39188;SDS011;24915;50.858;4.376;2022-12-18T01:00:28;54.40;;;28.17;;
39188;SDS011;24915;50.858;4.376;2022-12-18T01:02:54;59.55;;;29.10;;
39188;SDS011;24915;50.858;4.376;2022-12-18T01:05:19;56.92;;;28.35;;
39188;SDS011;24915;50.858;4.376;2022-12-18T01:07:45;68.68;;;32.05;;
39188;SDS011;24915;50.858;4.376;2022-12-18T01:10:12;69.72;;;30.70;;
39188;SDS011;24915;50.858;4.376;2022-12-18T01:12:38;72.43;;;34.03;;
39188;SDS011;24915;50.858;4.376;2022-12-18T01:15:04;70.00;;;33.42;;
39188;SDS011;24915;50.858;4.376;2022-12-18T01:17:31;70.65;;;32.10;;
39188;SDS011;24915;50.858;4.376;2022-12-18T01:19:57;69.95;;;31.95;;
39188;SDS011;24915;50.858;4.376;2022-12-18T01:22:22;67.93;;;33.17;;
39188;SDS011;24915;50.858;4.376;2022-12-18T01:24:48;61.63;;;28.30;;
39188;SDS011;24915;50.858;4.376;2022-12-18T01:27:14;39.75;;;20.67;;
39188;SDS011;24915;50.858;4.376;2022-12-18T01:29:39;36.03;;;19.90;;
39188;SDS011;24915;50.858;4.376;2022-12-18T01:32:05;32.75;;;18.15;;
39188;SDS011;24915;50.858;4.376;2022-12-18T01:34:31;34.88;;;18.50;;
39188;SDS011;24915;50.858;4.376;2022-12-18T01:36:56;41.20;;;19.88;;
39188;SDS011;24915;50.858;4.376;2022-12-18T01:39:22;35.70;;;18.33;;
39188;SDS011;24915;50.858;4.376;2022-12-18T01:41:48;44.35;;;20.48;;
39188;SDS011;24915;50.858;4.376;2022-12-18T01:47:41;33.22;;;17.30;;
39188;SDS011;24915;50.858;4.376;2022-12-18T01:50:50;30.88;;;16.35;;
39188;SDS011;24915;50.858;4.376;2022-12-18T01:53:14;38.83;;;18.90;;
39188;SDS011;24915;50.858;4.376;2022-12-18T01:55:43;37.67;;;18.80;;
39188;SDS011;24915;50.858;4.376;2022-12-18T01:58:10;34.55;;;17.75;;
39188;SDS011;24915;50.858;4.376;2022-12-18T02:00:36;36.45;;;17.00;;
39188;SDS011;24915;50.858;4.376;2022-12-18T02:03:01;30.85;;;15.45;;
39188;SDS011;24915;50.858;4.376;2022-12-18T02:10:52;39.60;;;19.80;;
39188;SDS011;24915;50.858;4.376;2022-12-18T02:16:23;54.88;;;26.92;;
39188;SDS011;24915;50.858;4.376;2022-12-18T02:18:59;57.63;;;26.88;;
39188;SDS011;24915;50.858;4.376;2022-12-18T02:21:34;62.95;;;28.55;;
39188;SDS011;24915;50.858;4.376;2022-12-18T02:26:49;50.38;;;22.38;;
39188;SDS011;24915;50.858;4.376;2022-12-18T02:29:38;60.60;;;28.40;;
39188;SDS011;24915;50.858;4.376;2022-12-18T02:32:24;58.42;;;28.63;;
39188;SDS011;24915;50.858;4.376;2022-12-18T02:34:53;58.97;;;27.27;;
39188;SDS011;24915;50.858;4.376;2022-12-18T02:37:21;52.45;;;26.13;;
39188;SDS011;24915;50.858;4.376;2022-12-18T02:39:49;52.00;;;26.40;;
39188;SDS011;24915;50.858;4.376;2022-12-18T02:42:18;58.58;;;26.85;;
39188;SDS011;24915;50.858;4.376;2022-12-18T02:44:45;53.17;;;25.50;;
39188;SDS011;24915;50.858;4.376;2022-12-18T02:47:13;56.38;;;25.65;;
39188;SDS011;24915;50.858;4.376;2022-12-18T02:55:08;51.58;;;24.52;;
39188;SDS011;24915;50.858;4.376;2022-12-18T03:00:48;47.13;;;22.83;;
39188;SDS011;24915;50.858;4.376;2022-12-18T03:06:02;42.25;;;20.83;;
39188;SDS011;24915;50.858;4.376;2022-12-18T03:08:38;35.60;;;18.70;;
39188;SDS011;24915;50.858;4.376;2022-12-18T03:11:08;36.45;;;18.70;;
39188;SDS011;24915;50.858;4.376;2022-12-18T03:13:36;38.30;;;19.35;;
39188;SDS011;24915;50.858;4.376;2022-12-18T03:16:12;34.88;;;17.85;;
39188;SDS011;24915;50.858;4.376;2022-12-18T03:18:45;37.08;;;18.48;;
39188;SDS011;24915;50.858;4.376;2022-12-18T03:21:14;41.08;;;18.95;;
39188;SDS011;24915;50.858;4.376;2022-12-18T03:23:44;36.60;;;19.38;;
39188;SDS011;24915;50.858;4.376;2022-12-18T03:26:13;34.58;;;17.55;;
39188;SDS011;24915;50.858;4.376;2022-12-18T03:28:43;39.38;;;19.05;;
39188;SDS011;24915;50.858;4.376;2022-12-18T03:31:12;36.42;;;18.35;;
39188;SDS011;24915;50.858;4.376;2022-12-18T03:33:41;31.40;;;17.40;;
39188;SDS011;24915;50.858;4.376;2022-12-18T03:36:12;35.63;;;17.87;;
39188;SDS011;24915;50.858;4.376;2022-12-18T03:38:38;32.92;;;16.35;;
39188;SDS011;24915;50.858;4.376;2022-12-18T03:41:25;32.88;;;17.30;;
39188;SDS011;24915;50.858;4.376;2022-12-18T03:44:40;35.78;;;17.42;;
39188;SDS011;24915;50.858;4.376;2022-12-18T03:47:01;31.20;;;16.60;;
39188;SDS011;24915;50.858;4.376;2022-12-18T03:52:27;34.33;;;16.63;;
39188;SDS011;24915;50.858;4.376;2022-12-18T03:55:00;35.38;;;17.63;;
39188;SDS011;24915;50.858;4.376;2022-12-18T03:57:29;31.58;;;16.63;;
39188;SDS011;24915;50.858;4.376;2022-12-18T04:00:03;32.60;;;17.05;;
39188;SDS011;24915;50.858;4.376;2022-12-18T04:02:32;35.78;;;18.13;;
39188;SDS011;24915;50.858;4.376;2022-12-18T04:04:59;30.98;;;16.98;;
39188;SDS011;24915;50.858;4.376;2022-12-18T04:07:29;33.70;;;16.80;;
39188;SDS011;24915;50.858;4.376;2022-12-18T04:09:55;34.15;;;17.15;;
39188;SDS011;24915;50.858;4.376;2022-12-18T04:12:24;35.28;;;17.45;;
39188;SDS011;24915;50.858;4.376;2022-12-18T04:14:51;30.75;;;16.70;;
39188;SDS011;24915;50.858;4.376;2022-12-18T04:17:17;30.00;;;15.35;;
39188;SDS011;24915;50.858;4.376;2022-12-18T04:19:42;31.00;;;16.65;;
39188;SDS011;24915;50.858;4.376;2022-12-18T04:22:09;33.33;;;16.42;;
39188;SDS011;24915;50.858;4.376;2022-12-18T04:24:37;31.02;;;15.68;;
39188;SDS011;24915;50.858;4.376;2022-12-18T04:27:03;32.17;;;15.65;;
39188;SDS011;24915;50.858;4.376;2022-12-18T04:29:30;33.20;;;15.85;;
39188;SDS011;24915;50.858;4.376;2022-12-18T04:31:55;29.63;;;15.73;;
39188;SDS011;24915;50.858;4.376;2022-12-18T04:34:21;32.50;;;15.70;;
39188;SDS011;24915;50.858;4.376;2022-12-18T04:36:47;31.33;;;16.13;;
39188;SDS011;24915;50.858;4.376;2022-12-18T04:39:12;32.00;;;15.85;;
39188;SDS011;24915;50.858;4.376;2022-12-18T04:41:38;30.38;;;15.30;;
39188;SDS011;24915;50.858;4.376;2022-12-18T04:44:04;31.92;;;16.58;;
39188;SDS011;24915;50.858;4.376;2022-12-18T04:46:30;29.70;;;15.93;;
39188;SDS011;24915;50.858;4.376;2022-12-18T04:48:56;32.25;;;16.63;;
39188;SDS011;24915;50.858;4.376;2022-12-18T04:51:21;29.10;;;15.70;;
39188;SDS011;24915;50.858;4.376;2022-12-18T04:53:47;30.35;;;16.60;;
39188;SDS011;24915;50.858;4.376;2022-12-18T04:56:13;31.63;;;15.52;;
39188;SDS011;24915;50.858;4.376;2022-12-18T04:58:41;28.42;;;15.70;;
39188;SDS011;24915;50.858;4.376;2022-12-18T05:01:08;29.48;;;15.57;;
39188;SDS011;24915;50.858;4.376;2022-12-18T05:03:35;27.95;;;15.60;;
39188;SDS011;24915;50.858;4.376;2022-12-18T05:06:01;29.48;;;15.00;;
39188;SDS011;24915;50.858;4.376;2022-12-18T05:08:27;29.98;;;15.60;;
39188;SDS011;24915;50.858;4.376;2022-12-18T05:11:00;33.40;;;16.85;;
39188;SDS011;24915;50.858;4.376;2022-12-18T05:13:31;28.48;;;15.07;;
39188;SDS011;24915;50.858;4.376;2022-12-18T05:15:57;32.42;;;16.02;;
39188;SDS011;24915;50.858;4.376;2022-12-18T05:18:23;35.67;;;15.40;;
39188;SDS011;24915;50.858;4.376;2022-12-18T05:20:52;32.25;;;15.60;;
39188;SDS011;24915;50.858;4.376;2022-12-18T05:23:19;26.58;;;14.15;;
39188;SDS011;24915;50.858;4.376;2022-12-18T05:25:52;28.50;;;14.02;;
39188;SDS011;24915;50.858;4.376;2022-12-18T05:28:20;33.17;;;14.98;;
39188;SDS011;24915;50.858;4.376;2022-12-18T05:30:49;28.85;;;15.18;;
39188;SDS011;24915;50.858;4.376;2022-12-18T05:33:17;29.15;;;14.82;;
39188;SDS011;24915;50.858;4.376;2022-12-18T05:35:53;26.63;;;14.90;;
39188;SDS011;24915;50.858;4.376;2022-12-18T05:38:20;33.08;;;15.18;;
39188;SDS011;24915;50.858;4.376;2022-12-18T05:40:47;27.35;;;15.35;;
39188;SDS011;24915;50.858;4.376;2022-12-18T05:43:14;27.02;;;14.02;;
39188;SDS011;24915;50.858;4.376;2022-12-18T05:45:41;27.85;;;14.27;;
39188;SDS011;24915;50.858;4.376;2022-12-18T05:48:07;27.80;;;14.27;;
39188;SDS011;24915;50.858;4.376;2022-12-18T05:50:34;31.77;;;14.35;;
39188;SDS011;24915;50.858;4.376;2022-12-18T05:53:01;25.58;;;13.40;;
39188;SDS011;24915;50.858;4.376;2022-12-18T05:55:27;28.45;;;13.98;;
39188;SDS011;24915;50.858;4.376;2022-12-18T05:57:53;27.65;;;14.43;;
39188;SDS011;24915;50.858;4.376;2022-12-18T06:00:18;27.90;;;14.02;;
39188;SDS011;24915;50.858;4.376;2022-12-18T06:02:47;28.08;;;13.63;;
39188;SDS011;24915;50.858;4.376;2022-12-18T06:05:13;25.60;;;12.90;;
39188;SDS011;24915;50.858;4.376;2022-12-18T06:07:39;25.80;;;13.65;;
39188;SDS011;24915;50.858;4.376;2022-12-18T06:10:05;25.85;;;12.68;;
39188;SDS011;24915;50.858;4.376;2022-12-18T06:12:31;31.83;;;13.90;;
39188;SDS011;24915;50.858;4.376;2022-12-18T06:14:58;27.17;;;14.25;;
39188;SDS011;24915;50.858;4.376;2022-12-18T06:17:28;24.00;;;12.98;;
39188;SDS011;24915;50.858;4.376;2022-12-18T06:19:57;29.52;;;14.80;;
39188;SDS011;24915;50.858;4.376;2022-12-18T06:22:23;27.00;;;13.02;;
39188;SDS011;24915;50.858;4.376;2022-12-18T06:24:49;27.10;;;13.25;;
39188;SDS011;24915;50.858;4.376;2022-12-18T06:27:14;22.33;;;12.25;;
39188;SDS011;24915;50.858;4.376;2022-12-18T06:29:40;24.60;;;12.10;;
39188;SDS011;24915;50.858;4.376;2022-12-18T06:32:07;22.35;;;12.27;;
39188;SDS011;24915;50.858;4.376;2022-12-18T06:34:32;21.00;;;12.00;;
39188;SDS011;24915;50.858;4.376;2022-12-18T06:36:58;22.63;;;13.15;;
39188;SDS011;24915;50.858;4.376;2022-12-18T06:39:26;29.15;;;13.15;;
39188;SDS011;24915;50.858;4.376;2022-12-18T06:41:52;26.08;;;13.15;;
39188;SDS011;24915;50.858;4.376;2022-12-18T06:44:18;21.90;;;11.67;;
39188;SDS011;24915;50.858;4.376;2022-12-18T06:46:44;22.45;;;11.55;;
39188;SDS011;24915;50.858;4.376;2022-12-18T06:49:10;24.48;;;12.63;;
39188;SDS011;24915;50.858;4.376;2022-12-18T06:51:36;25.13;;;12.40;;
39188;SDS011;24915;50.858;4.376;2022-12-18T06:54:02;24.08;;;12.07;;
39188;SDS011;24915;50.858;4.376;2022-12-18T06:56:28;22.47;;;11.73;;
39188;SDS011;24915;50.858;4.376;2022-12-18T06:58:54;21.08;;;11.35;;
39188;SDS011;24915;50.858;4.376;2022-12-18T07:01:20;20.42;;;10.48;;
39188;SDS011;24915;50.858;4.376;2022-12-18T07:03:46;18.02;;;9.93;;
39188;SDS011;24915;50.858;4.376;2022-12-18T07:06:18;22.08;;;9.45;;
39188;SDS011;24915;50.858;4.376;2022-12-18T07:08:45;20.25;;;9.63;;
39188;SDS011;24915;50.858;4.376;2022-12-18T07:11:12;20.38;;;9.75;;
39188;SDS011;24915;50.858;4.376;2022-12-18T07:13:38;21.52;;;10.02;;
39188;SDS011;24915;50.858;4.376;2022-12-18T07:16:25;19.25;;;10.25;;
39188;SDS011;24915;50.858;4.376;2022-12-18T07:18:50;22.58;;;11.13;;
39188;SDS011;24915;50.858;4.376;2022-12-18T07:21:17;22.05;;;11.20;;
39188;SDS011;24915;50.858;4.376;2022-12-18T07:23:44;21.20;;;10.73;;
39188;SDS011;24915;50.858;4.376;2022-12-18T07:26:13;22.95;;;11.27;;
39188;SDS011;24915;50.858;4.376;2022-12-18T07:28:40;20.17;;;10.88;;
39188;SDS011;24915;50.858;4.376;2022-12-18T07:31:08;20.05;;;11.90;;
39188;SDS011;24915;50.858;4.376;2022-12-18T07:33:35;18.83;;;10.50;;
39188;SDS011;24915;50.858;4.376;2022-12-18T07:36:01;23.15;;;11.80;;
39188;SDS011;24915;50.858;4.376;2022-12-18T07:38:28;22.10;;;10.75;;
39188;SDS011;24915;50.858;4.376;2022-12-18T07:40:54;15.93;;;9.75;;
39188;SDS011;24915;50.858;4.376;2022-12-18T07:43:25;16.25;;;9.60;;
39188;SDS011;24915;50.858;4.376;2022-12-18T07:45:50;18.85;;;10.25;;
39188;SDS011;24915;50.858;4.376;2022-12-18T07:48:16;18.63;;;10.00;;
39188;SDS011;24915;50.858;4.376;2022-12-18T07:50:41;16.98;;;9.90;;
39188;SDS011;24915;50.858;4.376;2022-12-18T07:53:07;18.90;;;10.32;;
39188;SDS011;24915;50.858;4.376;2022-12-18T07:55:33;18.85;;;10.27;;
39188;SDS011;24915;50.858;4.376;2022-12-18T07:58:04;17.55;;;9.85;;
39188;SDS011;24915;50.858;4.376;2022-12-18T08:00:30;18.33;;;9.73;;
39188;SDS011;24915;50.858;4.376;2022-12-18T08:02:56;18.85;;;9.60;;
39188;SDS011;24915;50.858;4.376;2022-12-18T08:05:22;16.48;;;9.35;;
39188;SDS011;24915;50.858;4.376;2022-12-18T08:07:49;15.55;;;9.30;;
39188;SDS011;24915;50.858;4.376;2022-12-18T08:10:14;16.75;;;8.98;;
39188;SDS011;24915;50.858;4.376;2022-12-18T08:12:41;17.80;;;8.93;;
39188;SDS011;24915;50.858;4.376;2022-12-18T08:15:07;17.75;;;9.85;;
39188;SDS011;24915;50.858;4.376;2022-12-18T08:17:33;16.75;;;9.10;;
39188;SDS011;24915;50.858;4.376;2022-12-18T08:19:58;21.40;;;10.68;;
39188;SDS011;24915;50.858;4.376;2022-12-18T08:22:24;15.00;;;8.95;;
39188;SDS011;24915;50.858;4.376;2022-12-18T08:24:50;16.92;;;9.05;;
39188;SDS011;24915;50.858;4.376;2022-12-18T08:27:16;14.70;;;9.23;;
39188;SDS011;24915;50.858;4.376;2022-12-18T08:29:42;20.55;;;9.45;;
39188;SDS011;24915;50.858;4.376;2022-12-18T08:32:08;16.25;;;9.50;;
39188;SDS011;24915;50.858;4.376;2022-12-18T08:34:34;15.73;;;9.60;;
39188;SDS011;24915;50.858;4.376;2022-12-18T08:37:00;17.17;;;10.38;;
39188;SDS011;24915;50.858;4.376;2022-12-18T08:39:25;19.38;;;9.68;;
39188;SDS011;24915;50.858;4.376;2022-12-18T08:41:51;17.63;;;10.27;;
39188;SDS011;24915;50.858;4.376;2022-12-18T08:44:35;17.27;;;9.82;;
39188;SDS011;24915;50.858;4.376;2022-12-18T08:47:06;17.52;;;9.93;;
39188;SDS011;24915;50.858;4.376;2022-12-18T08:49:32;16.50;;;9.35;;
39188;SDS011;24915;50.858;4.376;2022-12-18T08:51:59;15.15;;;9.15;;
39188;SDS011;24915;50.858;4.376;2022-12-18T08:54:25;19.25;;;10.15;;
39188;SDS011;24915;50.858;4.376;2022-12-18T08:56:51;20.77;;;10.02;;
39188;SDS011;24915;50.858;4.376;2022-12-18T08:59:17;19.67;;;9.85;;
39188;SDS011;24915;50.858;4.376;2022-12-18T09:01:44;17.73;;;9.77;;
39188;SDS011;24915;50.858;4.376;2022-12-18T09:04:10;17.90;;;9.70;;
39188;SDS011;24915;50.858;4.376;2022-12-18T09:06:36;19.98;;;10.80;;
39188;SDS011;24915;50.858;4.376;2022-12-18T09:09:03;20.27;;;10.55;;
39188;SDS011;24915;50.858;4.376;2022-12-18T09:11:30;20.38;;;10.80;;
39188;SDS011;24915;50.858;4.376;2022-12-18T09:13:57;22.65;;;11.55;;
39188;SDS011;24915;50.858;4.376;2022-12-18T09:16:24;20.45;;;10.90;;
39188;SDS011;24915;50.858;4.376;2022-12-18T09:18:51;21.67;;;12.40;;
39188;SDS011;24915;50.858;4.376;2022-12-18T09:21:19;17.63;;;10.35;;
39188;SDS011;24915;50.858;4.376;2022-12-18T09:23:53;22.75;;;11.48;;
39188;SDS011;24915;50.858;4.376;2022-12-18T09:26:20;18.50;;;11.30;;
39188;SDS011;24915;50.858;4.376;2022-12-18T09:28:46;18.33;;;10.52;;
39188;SDS011;24915;50.858;4.376;2022-12-18T09:31:12;20.13;;;11.23;;
39188;SDS011;24915;50.858;4.376;2022-12-18T09:33:39;19.92;;;11.25;;
39188;SDS011;24915;50.858;4.376;2022-12-18T09:36:05;22.25;;;11.48;;
39188;SDS011;24915;50.858;4.376;2022-12-18T09:38:33;19.92;;;11.50;;
39188;SDS011;24915;50.858;4.376;2022-12-18T09:41:03;22.60;;;11.80;;
39188;SDS011;24915;50.858;4.376;2022-12-18T09:43:51;23.05;;;12.52;;
39188;SDS011;24915;50.858;4.376;2022-12-18T09:46:27;22.02;;;12.27;;
39188;SDS011;24915;50.858;4.376;2022-12-18T09:48:58;23.02;;;12.30;;
39188;SDS011;24915;50.858;4.376;2022-12-18T09:51:28;24.40;;;12.25;;
39188;SDS011;24915;50.858;4.376;2022-12-18T09:54:02;23.92;;;13.23;;
39188;SDS011;24915;50.858;4.376;2022-12-18T09:56:34;23.92;;;12.38;;
39188;SDS011;24915;50.858;4.376;2022-12-18T09:59:02;22.40;;;13.02;;
39188;SDS011;24915;50.858;4.376;2022-12-18T10:01:29;25.40;;;13.75;;
39188;SDS011;24915;50.858;4.376;2022-12-18T10:03:56;24.25;;;13.60;;
39188;SDS011;24915;50.858;4.376;2022-12-18T10:06:31;28.75;;;14.35;;
39188;SDS011;24915;50.858;4.376;2022-12-18T10:09:10;25.20;;;14.18;;
39188;SDS011;24915;50.858;4.376;2022-12-18T10:11:48;27.40;;;14.32;;
39188;SDS011;24915;50.858;4.376;2022-12-18T10:20:05;27.42;;;14.27;;
39188;SDS011;24915;50.858;4.376;2022-12-18T10:25:44;24.40;;;13.80;;
39188;SDS011;24915;50.858;4.376;2022-12-18T10:28:22;23.92;;;13.82;;
39188;SDS011;24915;50.858;4.376;2022-12-18T10:30:49;26.00;;;14.32;;
39188;SDS011;24915;50.858;4.376;2022-12-18T10:33:19;27.38;;;15.25;;
39188;SDS011;24915;50.858;4.376;2022-12-18T10:35:47;26.83;;;14.63;;
39188;SDS011;24915;50.858;4.376;2022-12-18T10:43:20;27.15;;;15.70;;
39188;SDS011;24915;50.858;4.376;2022-12-18T10:51:18;32.10;;;17.63;;
39188;SDS011;24915;50.858;4.376;2022-12-18T10:53:51;26.17;;;15.25;;
39188;SDS011;24915;50.858;4.376;2022-12-18T10:56:21;29.63;;;16.17;;
39188;SDS011;24915;50.858;4.376;2022-12-18T10:59:00;35.00;;;18.27;;
39188;SDS011;24915;50.858;4.376;2022-12-18T11:01:31;36.13;;;17.75;;
39188;SDS011;24915;50.858;4.376;2022-12-18T11:04:19;35.85;;;19.33;;
39188;SDS011;24915;50.858;4.376;2022-12-18T11:06:55;34.85;;;17.90;;
39188;SDS011;24915;50.858;4.376;2022-12-18T11:09:29;42.42;;;18.25;;
39188;SDS011;24915;50.858;4.376;2022-12-18T11:12:01;30.25;;;16.52;;
39188;SDS011;24915;50.858;4.376;2022-12-18T11:14:32;32.33;;;16.92;;
39188;SDS011;24915;50.858;4.376;2022-12-18T11:17:00;33.05;;;17.48;;
39188;SDS011;24915;50.858;4.376;2022-12-18T11:19:28;39.35;;;18.75;;
39188;SDS011;24915;50.858;4.376;2022-12-18T11:21:58;47.70;;;18.80;;
39188;SDS011;24915;50.858;4.376;2022-12-18T11:26:51;34.85;;;16.38;;
39188;SDS011;24915;50.858;4.376;2022-12-18T11:29:18;37.75;;;16.92;;
39188;SDS011;24915;50.858;4.376;2022-12-18T11:34:22;41.35;;;16.95;;
39188;SDS011;24915;50.858;4.376;2022-12-18T11:36:53;32.70;;;15.95;;
39188;SDS011;24915;50.858;4.376;2022-12-18T11:39:42;29.00;;;15.23;;
39188;SDS011;24915;50.858;4.376;2022-12-18T11:45:24;28.27;;;14.10;;
39188;SDS011;24915;50.858;4.376;2022-12-18T11:50:46;31.75;;;15.48;;
39188;SDS011;24915;50.858;4.376;2022-12-18T11:53:16;38.05;;;14.85;;
39188;SDS011;24915;50.858;4.376;2022-12-18T11:55:56;32.03;;;14.88;;
39188;SDS011;24915;50.858;4.376;2022-12-18T12:03:47;33.40;;;15.73;;
39188;SDS011;24915;50.858;4.376;2022-12-18T12:09:22;35.13;;;15.10;;
39188;SDS011;24915;50.858;4.376;2022-12-18T12:17:47;35.25;;;15.70;;
39188;SDS011;24915;50.858;4.376;2022-12-18T12:40:15;35.50;;;16.80;;
39188;SDS011;24915;50.858;4.376;2022-12-18T12:42:45;30.75;;;14.23;;
39188;SDS011;24915;50.858;4.376;2022-12-18T12:45:37;38.40;;;16.92;;
39188;SDS011;24915;50.858;4.376;2022-12-18T12:48:05;37.80;;;18.25;;
39188;SDS011;24915;50.858;4.376;2022-12-18T12:50:40;39.95;;;18.20;;
39188;SDS011;24915;50.858;4.376;2022-12-18T12:53:07;35.95;;;17.58;;
39188;SDS011;24915;50.858;4.376;2022-12-18T12:55:47;36.88;;;17.40;;
39188;SDS011;24915;50.858;4.376;2022-12-18T13:01:09;41.33;;;19.25;;
39188;SDS011;24915;50.858;4.376;2022-12-18T13:03:46;38.60;;;19.13;;
39188;SDS011;24915;50.858;4.376;2022-12-18T13:06:23;38.17;;;18.90;;
39188;SDS011;24915;50.858;4.376;2022-12-18T13:09:01;39.47;;;19.40;;
39188;SDS011;24915;50.858;4.376;2022-12-18T13:11:29;44.40;;;20.20;;
39188;SDS011;24915;50.858;4.376;2022-12-18T13:14:42;42.20;;;20.40;;
39188;SDS011;24915;50.858;4.376;2022-12-18T13:19:49;46.58;;;20.75;;
39188;SDS011;24915;50.858;4.376;2022-12-18T13:22:28;48.55;;;20.52;;
39188;SDS011;24915;50.858;4.376;2022-12-18T13:25:43;42.25;;;20.58;;
39188;SDS011;24915;50.858;4.376;2022-12-18T13:43:47;45.30;;;21.20;;
39188;SDS011;24915;50.858;4.376;2022-12-18T13:51:49;45.92;;;22.73;;
39188;SDS011;24915;50.858;4.376;2022-12-18T13:56:54;47.42;;;21.58;;
39188;SDS011;24915;50.858;4.376;2022-12-18T13:59:24;49.50;;;23.52;;
39188;SDS011;24915;50.858;4.376;2022-12-18T14:07:35;45.83;;;23.55;;
39188;SDS011;24915;50.858;4.376;2022-12-18T14:09:44;50.42;;;22.17;;
39188;SDS011;24915;50.858;4.376;2022-12-18T14:12:17;59.58;;;25.33;;
39188;SDS011;24915;50.858;4.376;2022-12-18T14:17:50;65.97;;;25.00;;
39188;SDS011;24915;50.858;4.376;2022-12-18T14:20:21;54.58;;;24.40;;
39188;SDS011;24915;50.858;4.376;2022-12-18T14:22:49;57.83;;;24.00;;
39188;SDS011;24915;50.858;4.376;2022-12-18T14:25:20;49.17;;;23.65;;
39188;SDS011;24915;50.858;4.376;2022-12-18T14:27:49;51.03;;;24.48;;
39188;SDS011;24915;50.858;4.376;2022-12-18T14:30:31;52.03;;;25.58;;
39188;SDS011;24915;50.858;4.376;2022-12-18T14:33:10;49.38;;;24.85;;
39188;SDS011;24915;50.858;4.376;2022-12-18T14:35:56;52.60;;;25.05;;
39188;SDS011;24915;50.858;4.376;2022-12-18T14:38:38;51.67;;;25.83;;
39188;SDS011;24915;50.858;4.376;2022-12-18T14:41:06;52.08;;;24.92;;
39188;SDS011;24915;50.858;4.376;2022-12-18T14:43:40;54.40;;;26.02;;
39188;SDS011;24915;50.858;4.376;2022-12-18T14:48:52;59.42;;;27.10;;
39188;SDS011;24915;50.858;4.376;2022-12-18T14:51:19;52.40;;;26.95;;
39188;SDS011;24915;50.858;4.376;2022-12-18T14:59:06;49.47;;;23.90;;
39188;SDS011;24915;50.858;4.376;2022-12-18T15:05:33;58.77;;;28.17;;
39188;SDS011;24915;50.858;4.376;2022-12-18T15:08:00;48.55;;;24.08;;
39188;SDS011;24915;50.858;4.376;2022-12-18T15:10:28;47.67;;;24.35;;
39188;SDS011;24915;50.858;4.376;2022-12-18T15:20:42;40.10;;;19.27;;
39188;SDS011;24915;50.858;4.376;2022-12-18T15:26:08;57.95;;;26.30;;
39188;SDS011;24915;50.858;4.376;2022-12-18T15:28:36;47.53;;;24.65;;
39188;SDS011;24915;50.858;4.376;2022-12-18T15:33:45;59.92;;;27.20;;
39188;SDS011;24915;50.858;4.376;2022-12-18T15:36:19;101.05;;;41.15;;
39188;SDS011;24915;50.858;4.376;2022-12-18T15:38:47;67.68;;;32.53;;
39188;SDS011;24915;50.858;4.376;2022-12-18T15:41:14;61.47;;;28.33;;
39188;SDS011;24915;50.858;4.376;2022-12-18T15:43:44;63.38;;;29.95;;
39188;SDS011;24915;50.858;4.376;2022-12-18T15:46:12;57.80;;;27.35;;
39188;SDS011;24915;50.858;4.376;2022-12-18T15:48:43;71.65;;;31.58;;
39188;SDS011;24915;50.858;4.376;2022-12-18T15:51:37;61.22;;;29.42;;
39188;SDS011;24915;50.858;4.376;2022-12-18T15:54:04;54.10;;;26.67;;
39188;SDS011;24915;50.858;4.376;2022-12-18T15:56:34;58.05;;;26.00;;
39188;SDS011;24915;50.858;4.376;2022-12-18T15:59:19;66.75;;;34.17;;
39188;SDS011;24915;50.858;4.376;2022-12-18T16:01:48;57.33;;;26.77;;
39188;SDS011;24915;50.858;4.376;2022-12-18T16:04:16;50.78;;;24.83;;
39188;SDS011;24915;50.858;4.376;2022-12-18T16:06:45;61.10;;;30.92;;
39188;SDS011;24915;50.858;4.376;2022-12-18T16:09:11;53.25;;;25.48;;
39188;SDS011;24915;50.858;4.376;2022-12-18T16:11:37;56.03;;;26.88;;
39188;SDS011;24915;50.858;4.376;2022-12-18T16:14:17;57.78;;;28.00;;
39188;SDS011;24915;50.858;4.376;2022-12-18T16:16:57;54.83;;;26.70;;
39188;SDS011;24915;50.858;4.376;2022-12-18T16:19:27;58.83;;;28.55;;
39188;SDS011;24915;50.858;4.376;2022-12-18T16:21:54;60.88;;;28.23;;
39188;SDS011;24915;50.858;4.376;2022-12-18T16:24:22;50.58;;;25.10;;
39188;SDS011;24915;50.858;4.376;2022-12-18T16:26:53;57.90;;;27.92;;
39188;SDS011;24915;50.858;4.376;2022-12-18T16:29:20;46.28;;;23.40;;
39188;SDS011;24915;50.858;4.376;2022-12-18T16:31:51;58.92;;;27.25;;
39188;SDS011;24915;50.858;4.376;2022-12-18T16:36:56;47.22;;;22.30;;
39188;SDS011;24915;50.858;4.376;2022-12-18T16:39:23;52.55;;;25.48;;
39188;SDS011;24915;50.858;4.376;2022-12-18T16:41:49;53.33;;;26.45;;
39188;SDS011;24915;50.858;4.376;2022-12-18T16:44:15;62.67;;;29.08;;
39188;SDS011;24915;50.858;4.376;2022-12-18T16:46:41;55.00;;;26.05;;
39188;SDS011;24915;50.858;4.376;2022-12-18T16:49:16;46.00;;;22.02;;
39188;SDS011;24915;50.858;4.376;2022-12-18T16:51:42;47.70;;;23.95;;
39188;SDS011;24915;50.858;4.376;2022-12-18T16:54:09;47.60;;;23.27;;
39188;SDS011;24915;50.858;4.376;2022-12-18T16:56:35;50.90;;;23.95;;
39188;SDS011;24915;50.858;4.376;2022-12-18T16:59:01;45.83;;;22.38;;
39188;SDS011;24915;50.858;4.376;2022-12-18T17:01:28;44.17;;;21.50;;
39188;SDS011;24915;50.858;4.376;2022-12-18T17:03:55;41.78;;;21.23;;
39188;SDS011;24915;50.858;4.376;2022-12-18T17:06:23;43.50;;;20.67;;
39188;SDS011;24915;50.858;4.376;2022-12-18T17:08:59;51.72;;;23.00;;
39188;SDS011;24915;50.858;4.376;2022-12-18T17:11:27;42.65;;;20.13;;
39188;SDS011;24915;50.858;4.376;2022-12-18T17:13:56;45.00;;;21.98;;
39188;SDS011;24915;50.858;4.376;2022-12-18T17:16:21;39.97;;;20.63;;